Detall de PIREP

Printer-friendly versionPDF version

[2013/01/08 08:21:00]
Flight IATA:CT2114
Pilot Number:041
Company ICAO:CAT
Aircraft Type:A320/E
PAX:120
Departing Airport: LEVC
Destination Airport: LEXJ
Alternate Airport:LEBL
Online: VATSIM
Route:DCT CENTA A33 PRADO UN733 CJN DCT RBO UN867 BLV DCT
Flight Level:F230
No Slew and time accel
No pause
Crash detect
Detect pilot in Cockpit between each 30 and 45 minutes
08:21 Zero fuel Weight: 134051 Lbs, Fuel Weight: 13957 Lbs
08:21 VATSIM:LEVC 080800Z 26010KT CAVOK 06/01 Q1027 NOSIG
08:21 VATSIM:LEXJ 080800Z VRB01KT 9000 NSC 02/01 Q1029
08:21 VOICE CATALONIAN
08:24 Parking Brakes off
08:34 Take-off
08:34 Take off Weight: 146883 Lbs
08:34 Wind: 259º @ 010 Knots Heading: 294º
08:34 POS N39º 29´ 29´´ W000º 29´ 16´´
08:34 Gear Up: 180 Knots
08:34 Flaps:3 at 180 Knots
08:35 Flaps:2 at 181 Knots
08:35 Flaps:1 at 171 Knots
08:35 Flaps:0 at 163 Knots
08:44 TOC
08:44 Fuel Weight: 9895 Lb
08:49 Wind:218º@005 Knots Heading: 298º Ground Speed: 400 Knots Altitude 23402 ft
08:57 TOD
08:57 Fuel Weight: 8244 Lb
09:04 Wind:035º@004 Knots Heading: 009º Ground Speed: 400 Knots Altitude 22509 ft
09:19 Wind:231º@001 Knots Heading: 357º Ground Speed: 301 Knots Altitude 14511 ft
09:32 Flaps:1 at 205 Knots
09:32 Flaps:2 at 193 Knots
09:33 Flaps:3 at 176 Knots
09:33 Flaps:4 at 163 Knots
09:34 Wind:185º@001 Knots Heading: 289º Ground Speed: 152 Knots Altitude 2099 ft
09:34 Gear Down: 148 Knots
09:34 Flaps:5 at 147 Knots
09:36 TouchDown:Rate -140 ft/min Speed: 130 Knots
09:37 VATSIM:LEXJ 080900Z 18001KT CAVOK 03/02 Q1029
09:37 Land
09:37 Wind:181º@001 Knots
09:37 Heading: 292º
09:37 Flight Duration: 01:03
09:37 Landing Weight: 138378 Lbs
09:37 POS N43º 25´ 40´´ W003º 49´ 22´´
09:39 Parking brakes on
09:39 Block to Block Duration: 01:15
09:39 Final Fuel: 4016 Lbls
09:39 Spent Fuel: 9940 Lbls
09:39 Flight Length: 338 NM
09:39 TOD Land Length: 199 NM

Exportar CSV

Powered by Drupal - Modified by Danger4k